createdAt,value
2023-05-24T00:06:00.702Z,3.05
2023-05-24T00:08:27.396Z,2.80
2023-05-24T00:10:54.046Z,2.90
2023-05-24T00:13:20.750Z,2.83
2023-05-24T00:19:29.141Z,2.67
2023-05-24T00:29:29.150Z,2.55
2023-05-24T00:31:57.236Z,3.00
2023-05-24T00:34:23.938Z,2.40
2023-05-24T00:36:50.812Z,2.55
2023-05-24T00:39:18.047Z,2.67
2023-05-24T01:20:10.401Z,3.00
2023-05-24T01:22:57.362Z,2.80
2023-05-24T01:26:01.907Z,2.55
2023-05-24T01:28:29.635Z,2.92
2023-05-24T01:30:56.383Z,2.72
2023-05-24T01:33:23.207Z,2.47
2023-05-24T02:02:38.292Z,2.67
2023-05-24T02:05:05.690Z,3.85
2023-05-24T02:07:32.421Z,2.45
2023-05-24T03:20:54.679Z,2.53
2023-05-24T03:23:21.376Z,2.90
2023-05-24T03:25:48.120Z,2.78
2023-05-24T03:39:47.632Z,2.50
2023-05-24T03:42:14.384Z,2.95
2023-05-24T03:44:41.020Z,2.85
2023-05-24T03:47:07.834Z,2.10
2023-05-24T04:12:45.571Z,3.25
2023-05-24T04:15:15.262Z,3.50
2023-05-24T04:17:43.689Z,3.45
2023-05-24T04:20:11.531Z,2.85
2023-05-24T04:30:21.249Z,2.53
2023-05-24T04:32:48.726Z,3.55
2023-05-24T04:35:16.860Z,2.67
2023-05-24T04:37:44.529Z,3.50
2023-05-24T05:04:27.972Z,3.20
2023-05-24T05:06:55.570Z,3.83
2023-05-24T05:09:24.264Z,3.70
2023-05-24T05:11:50.970Z,3.47
2023-05-24T05:14:17.614Z,3.40
2023-05-24T05:16:45.683Z,3.50
2023-05-24T07:04:16.509Z,4.28
2023-05-24T07:06:43.254Z,4.60
2023-05-24T07:09:10.482Z,4.70
2023-05-24T07:11:37.304Z,5.35
2023-05-24T07:52:24.418Z,4.63
2023-05-24T07:54:52.361Z,5.10
2023-05-24T07:57:19.748Z,6.05
2023-05-24T07:59:46.720Z,5.55
2023-05-24T08:02:14.829Z,4.65
2023-05-24T08:04:41.924Z,4.50
2023-05-24T08:07:10.957Z,5.80
2023-05-24T08:09:38.343Z,5.75
2023-05-24T08:38:53.059Z,3.00
2023-05-24T08:41:19.774Z,5.38
2023-05-24T08:43:47.603Z,4.03
2023-05-24T08:46:17.658Z,4.10
2023-05-24T09:00:19.425Z,4.38
2023-05-24T09:02:47.503Z,4.38
2023-05-24T09:05:21.506Z,4.47
2023-05-24T09:08:03.995Z,4.13
2023-05-24T09:18:13.462Z,4.18
2023-05-24T09:20:40.312Z,3.10
2023-05-24T09:23:08.568Z,5.00
2023-05-24T09:33:17.610Z,4.50
2023-05-24T09:35:44.698Z,3.60
2023-05-24T09:38:20.395Z,3.95
2023-05-24T09:44:30.639Z,3.35
2023-05-24T18:03:18.453Z,2.35
2023-05-24T18:05:45.567Z,2.55
2023-05-24T18:08:12.304Z,2.70
2023-05-24T18:10:39.033Z,3.30
2023-05-24T18:32:11.422Z,2.40
2023-05-24T18:34:38.187Z,2.53
2023-05-24T18:37:05.086Z,2.45
2023-05-24T18:39:31.761Z,2.33
2023-05-24T19:20:28.707Z,3.25
2023-05-24T19:22:56.231Z,3.10
2023-05-24T19:25:22.929Z,2.90
2023-05-24T19:27:59.308Z,2.72
2023-05-24T20:01:26.263Z,3.15
2023-05-24T20:03:53.234Z,3.42
2023-05-24T20:06:20.013Z,2.97
2023-05-24T20:08:46.890Z,3.60
2023-05-24T20:11:14.332Z,3.42
2023-05-24T20:21:22.761Z,3.63
2023-05-24T20:23:50.702Z,3.78
2023-05-24T20:26:17.422Z,3.70
2023-05-24T21:07:18.646Z,4.35
2023-05-24T21:09:45.431Z,4.20
2023-05-24T21:12:12.073Z,4.97
2023-05-24T21:14:38.729Z,3.90
2023-05-24T21:17:06.099Z,4.05
2023-05-24T23:22:23.787Z,6.30
2023-05-24T23:24:50.649Z,5.68
2023-05-24T23:27:17.799Z,5.50
2023-05-24T23:29:44.735Z,6.13
2023-05-24T23:32:11.865Z,6.13
2023-05-24T23:34:38.671Z,5.63
2023-05-24T23:44:47.478Z,5.93
2023-05-24T23:47:14.152Z,6.18
2023-05-24T23:49:40.764Z,6.07
